createdAt,value
2023-06-12T00:01:21.261Z,8.73
2023-06-12T00:03:49.543Z,7.80
2023-06-12T00:06:18.157Z,10.32
2023-06-12T00:08:45.288Z,7.78
2023-06-12T00:11:17.913Z,8.43
2023-06-12T00:13:47.666Z,10.55
2023-06-12T00:16:14.535Z,8.98
2023-06-12T00:18:41.418Z,9.23
2023-06-12T00:21:09.957Z,7.90
2023-06-12T00:23:40.941Z,8.52
2023-06-12T00:26:07.892Z,8.88
2023-06-12T00:28:34.610Z,9.55
2023-06-12T00:31:01.599Z,6.25
2023-06-12T00:33:28.762Z,7.50
2023-06-12T00:35:55.619Z,8.25
2023-06-12T00:38:23.120Z,7.65
2023-06-12T00:40:51.246Z,7.47
2023-06-12T00:43:18.339Z,7.10
2023-06-12T00:45:45.870Z,9.88
2023-06-12T00:48:12.920Z,8.07
2023-06-12T00:50:41.074Z,9.38
2023-06-12T00:53:09.035Z,9.13
2023-06-12T00:55:36.901Z,9.30
2023-06-12T00:58:04.696Z,8.32
2023-06-12T01:00:32.134Z,8.20
2023-06-12T01:03:08.309Z,9.23
2023-06-12T01:05:38.656Z,9.93
2023-06-12T01:08:17.706Z,8.35
2023-06-12T01:10:57.493Z,9.93
2023-06-12T01:13:24.351Z,8.98
2023-06-12T01:15:51.434Z,9.13
2023-06-12T01:18:18.425Z,9.40
2023-06-12T01:20:45.358Z,10.70
2023-06-12T01:23:26.865Z,9.05
2023-06-12T01:25:59.507Z,8.88
2023-06-12T01:29:04.725Z,9.05
2023-06-12T01:32:02.500Z,11.68
2023-06-12T01:34:38.587Z,8.27
2023-06-12T01:37:22.317Z,8.57
2023-06-12T01:39:59.697Z,11.20
2023-06-12T01:42:28.575Z,7.97
2023-06-12T01:44:55.905Z,8.25
2023-06-12T01:47:23.359Z,7.75
2023-06-12T01:49:50.504Z,9.93
2023-06-12T01:52:17.348Z,8.35
2023-06-12T01:54:49.078Z,9.57
2023-06-12T01:57:20.571Z,7.80
2023-06-12T01:59:48.300Z,8.07
2023-06-12T02:02:16.268Z,8.27
2023-06-12T02:04:43.697Z,11.02
2023-06-12T02:07:11.111Z,12.60
2023-06-12T02:09:37.816Z,8.38
2023-06-12T02:12:04.868Z,8.95
2023-06-12T02:14:31.977Z,10.95
2023-06-12T02:16:58.709Z,9.50
2023-06-12T02:19:27.100Z,9.65
2023-06-12T02:21:55.252Z,9.57
2023-06-12T02:24:33.264Z,8.85
2023-06-12T02:27:00.039Z,9.90
2023-06-12T02:29:26.917Z,10.30
2023-06-12T02:31:53.760Z,9.05
2023-06-12T02:34:21.967Z,12.00
2023-06-12T02:36:49.056Z,10.48
2023-06-12T02:39:16.117Z,9.18
2023-06-12T02:41:44.353Z,11.60
2023-06-12T02:44:11.022Z,9.65
2023-06-12T02:46:53.834Z,9.50
2023-06-12T02:49:22.152Z,8.60
2023-06-12T02:51:49.075Z,10.07
2023-06-12T02:54:17.295Z,10.70
2023-06-12T02:56:47.852Z,9.55
2023-06-12T02:59:17.532Z,10.00
2023-06-12T03:01:45.247Z,9.23
2023-06-12T03:04:14.157Z,10.25
2023-06-12T03:06:41.050Z,11.07
2023-06-12T03:09:10.169Z,9.65
2023-06-12T03:11:37.924Z,8.90
2023-06-12T03:14:08.844Z,9.50
2023-06-12T03:16:35.899Z,8.90
2023-06-12T03:19:03.302Z,7.88
2023-06-12T03:21:30.103Z,8.73
2023-06-12T03:23:57.714Z,9.63
2023-06-12T03:26:24.590Z,11.50
2023-06-12T03:28:51.902Z,10.15
2023-06-12T03:31:18.686Z,13.45
2023-06-12T03:33:45.475Z,8.57
2023-06-12T03:36:12.738Z,10.63
2023-06-12T03:38:39.925Z,10.27
2023-06-12T03:41:06.746Z,11.13
2023-06-12T03:43:33.474Z,10.45
2023-06-12T03:46:00.323Z,9.77
2023-06-12T03:48:26.969Z,11.60
2023-06-12T03:50:53.725Z,10.05
2023-06-12T03:53:20.519Z,11.32
2023-06-12T03:55:47.628Z,9.77
2023-06-12T03:58:17.935Z,10.00
2023-06-12T04:00:46.948Z,10.90
2023-06-12T04:03:19.392Z,9.68
2023-06-12T04:05:46.916Z,9.95
2023-06-12T04:08:13.980Z,8.95
2023-06-12T04:10:41.796Z,10.27
2023-06-12T04:13:08.537Z,9.65
2023-06-12T04:15:35.293Z,9.57
2023-06-12T04:18:02.080Z,9.73
2023-06-12T04:20:30.490Z,11.32
2023-06-12T04:22:59.987Z,7.60
2023-06-12T04:25:27.759Z,10.02
2023-06-12T04:27:54.600Z,11.02
2023-06-12T04:30:22.663Z,12.38
2023-06-12T04:32:49.827Z,10.55
2023-06-12T04:35:17.857Z,11.93
2023-06-12T04:37:44.668Z,10.15
2023-06-12T04:40:15.596Z,8.45
2023-06-12T04:42:45.281Z,8.40
2023-06-12T04:45:15.080Z,10.85
2023-06-12T04:47:42.294Z,9.70
2023-06-12T04:50:12.120Z,9.00
2023-06-12T04:52:40.522Z,7.95
2023-06-12T04:55:10.859Z,8.63
2023-06-12T04:57:40.650Z,7.43
2023-06-12T05:00:12.688Z,9.38
2023-06-12T05:02:39.730Z,8.77
2023-06-12T05:05:07.444Z,7.10
2023-06-12T05:07:36.973Z,9.32
2023-06-12T05:10:04.373Z,8.00
2023-06-12T05:12:31.286Z,9.07
2023-06-12T05:15:00.721Z,9.93
2023-06-12T05:17:30.645Z,8.27
2023-06-12T05:19:57.334Z,9.52
2023-06-12T05:22:24.125Z,7.78
2023-06-12T05:24:50.903Z,8.10
2023-06-12T05:27:17.873Z,6.45
2023-06-12T05:29:44.652Z,9.45
2023-06-12T05:32:12.731Z,7.20
2023-06-12T05:34:39.482Z,7.50
2023-06-12T05:37:06.288Z,5.88
2023-06-12T05:39:33.027Z,7.05
2023-06-12T05:41:59.808Z,5.95
2023-06-12T05:44:26.834Z,6.47
2023-06-12T05:46:53.647Z,5.05
2023-06-12T05:49:22.509Z,7.38
2023-06-12T05:51:51.106Z,6.50
2023-06-12T05:54:17.881Z,6.80
2023-06-12T05:56:44.616Z,9.65
2023-06-12T05:59:11.435Z,8.32
2023-06-12T06:01:38.163Z,7.07
2023-06-12T06:04:05.335Z,8.25
2023-06-12T06:06:32.358Z,6.80
2023-06-12T06:09:00.170Z,7.78
2023-06-12T06:11:27.026Z,7.82
2023-06-12T06:13:53.719Z,7.85
2023-06-12T06:16:20.643Z,8.07
2023-06-12T06:18:47.514Z,8.57
2023-06-12T06:21:14.259Z,9.60
2023-06-12T06:23:41.215Z,6.55
2023-06-12T06:26:09.724Z,6.75
2023-06-12T06:28:37.340Z,6.97
2023-06-12T06:31:07.988Z,5.72
2023-06-12T06:33:35.176Z,6.53
2023-06-12T06:36:02.754Z,5.13
2023-06-12T06:38:30.128Z,6.40
2023-06-12T06:40:56.896Z,7.20
2023-06-12T06:43:24.183Z,4.63
2023-06-12T06:45:51.098Z,4.72
2023-06-12T06:48:17.892Z,6.70
2023-06-12T06:50:45.167Z,6.85
2023-06-12T06:53:11.988Z,5.65
2023-06-12T06:55:38.825Z,7.22
2023-06-12T06:58:05.721Z,9.98
2023-06-12T07:00:32.828Z,5.85
2023-06-12T07:02:59.898Z,8.10
2023-06-12T07:05:28.598Z,6.35
2023-06-12T07:08:02.059Z,6.95
2023-06-12T07:10:30.044Z,6.88
2023-06-12T07:12:59.824Z,6.60
2023-06-12T07:15:26.713Z,6.90
2023-06-12T07:17:53.939Z,5.60
2023-06-12T07:20:21.195Z,6.28
2023-06-12T07:22:48.274Z,4.53
2023-06-12T07:25:15.589Z,6.63
2023-06-12T07:27:42.675Z,6.75
2023-06-12T07:30:10.943Z,6.10
2023-06-12T07:32:37.749Z,4.90
2023-06-12T07:35:05.662Z,6.70
2023-06-12T07:37:36.614Z,5.35
2023-06-12T07:40:06.221Z,4.93
2023-06-12T07:42:34.298Z,9.77
2023-06-12T07:45:01.038Z,5.45
2023-06-12T07:47:28.522Z,5.65
2023-06-12T07:49:55.236Z,5.97
2023-06-12T07:52:22.229Z,6.75
2023-06-12T07:54:49.911Z,6.75
2023-06-12T07:57:16.808Z,7.30
2023-06-12T07:59:45.580Z,5.15
2023-06-12T08:02:13.453Z,6.60
2023-06-12T08:04:43.975Z,4.78
2023-06-12T08:07:14.004Z,6.78
2023-06-12T08:09:44.463Z,6.03
2023-06-12T08:12:14.302Z,6.35
2023-06-12T08:14:41.363Z,8.25
2023-06-12T08:17:08.369Z,6.78
2023-06-12T08:19:35.819Z,5.05
2023-06-12T08:22:03.309Z,6.30
2023-06-12T08:24:31.812Z,5.35
2023-06-12T08:26:59.771Z,5.43
2023-06-12T08:29:26.616Z,7.90
2023-06-12T08:31:54.499Z,8.40
2023-06-12T08:34:25.591Z,6.60
2023-06-12T08:36:54.191Z,7.47
2023-06-12T08:39:21.025Z,6.15
2023-06-12T08:42:04.616Z,5.13
2023-06-12T08:44:32.630Z,6.47
2023-06-12T08:47:02.341Z,8.75
2023-06-12T08:49:30.861Z,17.52
2023-06-12T08:51:57.811Z,9.45
2023-06-12T08:54:25.646Z,6.35
2023-06-12T08:56:57.228Z,6.65
2023-06-12T08:59:24.136Z,5.75
2023-06-12T09:02:13.348Z,5.78
2023-06-12T09:04:56.269Z,4.40
2023-06-12T09:07:23.853Z,8.25
2023-06-12T09:09:50.615Z,7.68
2023-06-12T09:12:17.371Z,11.02
2023-06-12T09:14:47.145Z,11.93
2023-06-12T09:17:14.125Z,5.95
2023-06-12T09:19:51.792Z,7.65
2023-06-12T09:22:18.748Z,6.55
2023-06-12T09:24:47.148Z,5.80
2023-06-12T09:27:14.312Z,6.60
2023-06-12T09:29:43.326Z,4.63
2023-06-12T09:32:13.608Z,4.47
2023-06-12T09:34:46.242Z,4.63
2023-06-12T09:37:15.320Z,3.75
2023-06-12T09:39:42.741Z,8.27
2023-06-12T09:42:09.611Z,2.38
2023-06-12T09:44:36.442Z,12.48
2023-06-12T09:47:08.478Z,3.28
2023-06-12T09:49:36.897Z,2.95
2023-06-12T09:52:06.119Z,2.95
2023-06-12T09:54:34.627Z,3.95
2023-06-12T09:57:05.855Z,2.60
2023-06-12T09:59:35.901Z,4.45
2023-06-12T10:02:14.328Z,3.65
2023-06-12T10:05:00.746Z,1.83
2023-06-12T10:07:34.218Z,3.25
2023-06-12T10:10:08.762Z,2.08
2023-06-12T10:12:36.621Z,3.17
2023-06-12T10:15:04.632Z,8.07
2023-06-12T10:17:33.358Z,3.63
2023-06-12T10:20:02.529Z,3.80
2023-06-12T10:22:31.857Z,3.00
2023-06-12T10:24:59.899Z,4.20
2023-06-12T10:27:27.279Z,5.60
2023-06-12T10:29:59.582Z,4.63
2023-06-12T10:32:31.685Z,5.60
2023-06-12T10:34:59.253Z,3.88
2023-06-12T10:37:41.011Z,4.82
2023-06-12T10:40:33.019Z,4.43
2023-06-12T10:43:06.252Z,6.40
2023-06-12T10:45:35.213Z,5.80
2023-06-12T10:48:05.084Z,7.60
2023-06-12T10:50:52.802Z,7.30
2023-06-12T10:53:25.020Z,6.03
2023-06-12T10:56:09.172Z,8.18
2023-06-12T10:58:41.118Z,9.07
2023-06-12T11:01:14.207Z,6.47
2023-06-12T11:03:46.096Z,7.60
2023-06-12T11:06:17.886Z,7.88
2023-06-12T11:08:46.911Z,6.60
2023-06-12T11:11:15.185Z,8.77
2023-06-12T11:13:43.713Z,6.97
2023-06-12T11:16:17.534Z,7.38
2023-06-12T11:18:44.960Z,6.28
2023-06-12T11:21:12.519Z,7.18
2023-06-12T11:23:43.987Z,7.28
2023-06-12T11:26:11.400Z,10.48
2023-06-12T11:28:38.975Z,8.77
2023-06-12T11:31:11.949Z,8.27
2023-06-12T11:33:40.402Z,9.18
2023-06-12T11:36:07.438Z,8.52
2023-06-12T11:41:13.126Z,8.20
2023-06-12T11:43:40.012Z,7.70
2023-06-12T11:46:07.128Z,9.35
2023-06-12T11:51:04.338Z,8.82
2023-06-12T11:53:35.541Z,5.20
2023-06-12T11:58:41.894Z,5.40
2023-06-12T12:01:22.965Z,5.65
2023-06-12T12:03:54.195Z,7.78
2023-06-12T12:06:23.799Z,5.60
2023-06-12T12:08:56.640Z,7.72
2023-06-12T12:11:27.852Z,7.72
2023-06-12T12:14:00.908Z,7.97
2023-06-12T12:16:30.400Z,6.75
2023-06-12T12:18:58.036Z,4.60
2023-06-12T12:21:25.270Z,8.35
2023-06-12T12:23:54.411Z,7.25
2023-06-12T12:26:21.566Z,6.63
2023-06-12T12:28:48.407Z,7.53
2023-06-12T12:31:15.248Z,6.82
2023-06-12T12:33:41.974Z,8.93
2023-06-12T12:36:09.252Z,7.60
2023-06-12T12:38:35.981Z,5.70
2023-06-12T12:41:02.778Z,9.00
2023-06-12T12:43:29.508Z,7.45
2023-06-12T12:45:56.249Z,7.63
2023-06-12T12:48:24.886Z,7.28
2023-06-12T12:51:07.249Z,9.63
2023-06-12T12:53:36.536Z,9.85
2023-06-12T12:56:03.826Z,9.25
2023-06-12T12:58:30.626Z,8.20
2023-06-12T13:00:57.468Z,8.02
2023-06-12T13:03:24.765Z,8.50
2023-06-12T13:05:51.635Z,7.55
2023-06-12T13:08:18.416Z,9.05
2023-06-12T13:10:45.259Z,9.00
2023-06-12T13:13:15.458Z,8.10
2023-06-12T13:15:43.287Z,8.43
2023-06-12T13:18:10.339Z,9.70
2023-06-12T13:20:37.098Z,10.02
2023-06-12T13:23:03.933Z,10.75
2023-06-12T13:25:30.659Z,8.95
2023-06-12T13:27:57.353Z,10.57
2023-06-12T13:30:25.910Z,11.57
2023-06-12T13:32:54.902Z,9.77
2023-06-12T13:35:21.703Z,10.35
2023-06-12T13:37:48.466Z,9.02
2023-06-12T13:40:17.600Z,9.43
2023-06-12T13:42:45.394Z,11.55
2023-06-12T13:45:12.158Z,8.18
2023-06-12T13:47:38.947Z,10.23
2023-06-12T13:50:12.693Z,10.85
2023-06-12T13:52:42.600Z,10.25
2023-06-12T13:55:09.814Z,10.15
2023-06-12T13:57:40.150Z,11.18
2023-06-12T14:00:09.101Z,9.93
2023-06-12T14:02:36.380Z,14.05
2023-06-12T14:05:06.417Z,12.45
2023-06-12T14:07:35.874Z,9.95
2023-06-12T14:10:02.744Z,7.28
2023-06-12T14:12:34.653Z,8.85
2023-06-12T14:15:02.006Z,7.38
2023-06-12T14:17:32.010Z,8.10
2023-06-12T14:20:00.740Z,8.88
2023-06-12T14:22:27.986Z,7.15
2023-06-12T14:24:54.812Z,7.45
2023-06-12T14:27:21.580Z,10.15
2023-06-12T14:29:48.467Z,9.63
2023-06-12T14:32:15.414Z,9.18
2023-06-12T14:34:42.245Z,9.07
2023-06-12T14:37:09.210Z,9.55
2023-06-12T14:39:39.051Z,11.68
2023-06-12T14:42:05.892Z,8.00
2023-06-12T14:44:32.624Z,8.63
2023-06-12T14:46:59.349Z,7.68
2023-06-12T14:49:26.081Z,7.40
2023-06-12T14:51:52.857Z,7.35
2023-06-12T14:54:19.637Z,8.27
2023-06-12T14:56:46.389Z,9.63
2023-06-12T14:59:13.175Z,10.52
2023-06-12T15:01:40.082Z,8.30
2023-06-12T15:04:07.688Z,8.80
2023-06-12T15:06:34.385Z,8.07
2023-06-12T15:09:01.146Z,9.15
2023-06-12T15:11:27.910Z,16.17
2023-06-12T15:13:54.861Z,8.88
2023-06-12T15:16:21.865Z,9.82
2023-06-12T15:18:48.914Z,8.15
2023-06-12T15:21:18.696Z,9.07
2023-06-12T15:23:46.874Z,9.77
2023-06-12T15:26:13.843Z,10.23
2023-06-12T15:28:40.657Z,11.63
2023-06-12T15:31:08.874Z,14.27
2023-06-12T15:33:35.770Z,13.70
2023-06-12T15:36:02.595Z,9.13
2023-06-12T15:38:45.163Z,8.00
2023-06-12T15:41:13.397Z,8.57
2023-06-12T15:43:41.681Z,10.48
2023-06-12T15:46:09.829Z,8.50
2023-06-12T15:48:39.134Z,8.68
2023-06-12T15:51:06.143Z,8.38
2023-06-12T15:53:32.860Z,10.93
2023-06-12T15:55:59.638Z,10.13
2023-06-12T15:58:26.434Z,9.02
2023-06-12T16:00:53.231Z,9.93
2023-06-12T16:03:20.157Z,11.70
2023-06-12T16:05:46.982Z,14.85
2023-06-12T16:08:13.789Z,18.42
2023-06-12T16:10:40.609Z,12.80
2023-06-12T16:13:07.328Z,10.32
2023-06-12T16:15:34.065Z,11.65
2023-06-12T16:18:00.954Z,11.38
2023-06-12T16:20:28.231Z,10.93
2023-06-12T16:22:54.986Z,12.88
2023-06-12T16:25:22.284Z,13.13
2023-06-12T16:27:49.164Z,11.63
2023-06-12T16:30:15.957Z,10.55
2023-06-12T16:32:42.895Z,13.82
2023-06-12T16:35:10.193Z,11.68
2023-06-12T16:37:37.240Z,15.52
2023-06-12T16:40:10.100Z,12.55
2023-06-12T16:42:37.906Z,11.23
2023-06-12T16:45:06.117Z,9.93
2023-06-12T16:47:33.088Z,12.63
2023-06-12T16:50:00.110Z,10.85
2023-06-12T16:52:27.275Z,11.50
2023-06-12T16:54:54.837Z,10.30
2023-06-12T16:57:21.936Z,9.13
2023-06-12T16:59:49.654Z,14.23
2023-06-12T17:02:19.567Z,15.20
2023-06-12T17:04:47.185Z,12.52
2023-06-12T17:07:18.167Z,9.38
2023-06-12T17:09:45.176Z,8.20
2023-06-12T17:12:13.010Z,13.52
2023-06-12T17:14:43.232Z,12.18
2023-06-12T17:17:11.263Z,13.45
2023-06-12T17:19:38.592Z,11.90
2023-06-12T17:22:08.793Z,9.52
2023-06-12T17:24:35.626Z,9.95
2023-06-12T17:27:09.846Z,11.73
2023-06-12T17:29:41.476Z,12.80
2023-06-12T17:32:09.749Z,11.77
2023-06-12T17:34:37.709Z,10.05
2023-06-12T17:37:05.439Z,10.60
2023-06-12T17:39:32.235Z,11.43
2023-06-12T17:41:58.964Z,11.65
2023-06-12T17:44:26.366Z,10.15
2023-06-12T17:46:54.340Z,10.50
2023-06-12T17:49:21.293Z,11.18
2023-06-12T17:51:48.555Z,8.75
2023-06-12T17:54:15.551Z,10.05
2023-06-12T17:56:42.340Z,9.90
2023-06-12T17:59:09.223Z,9.75
2023-06-12T18:01:36.010Z,10.73
2023-06-12T18:04:05.995Z,9.25
2023-06-12T18:06:33.455Z,12.50
2023-06-12T18:09:00.183Z,9.55
2023-06-12T18:11:27.443Z,9.40
2023-06-12T18:13:54.325Z,11.05
2023-06-12T18:16:23.099Z,18.45
2023-06-12T18:18:50.650Z,14.90
2023-06-12T18:21:17.617Z,13.57
2023-06-12T18:23:44.438Z,13.60
2023-06-12T18:26:11.235Z,10.63
2023-06-12T18:28:37.910Z,11.77
2023-06-12T18:31:04.663Z,12.65
2023-06-12T18:33:31.370Z,15.50
2023-06-12T18:35:58.172Z,12.60
2023-06-12T18:38:25.172Z,11.85
2023-06-12T18:40:52.227Z,11.85
2023-06-12T18:43:20.538Z,8.88
2023-06-12T18:45:48.143Z,9.48
2023-06-12T18:48:15.122Z,9.80
2023-06-12T18:50:41.960Z,14.05
2023-06-12T18:53:09.585Z,11.18
2023-06-12T18:55:37.944Z,12.52
2023-06-12T18:58:05.335Z,16.08
2023-06-12T19:00:41.917Z,13.80
2023-06-12T19:03:09.004Z,14.05
2023-06-12T19:05:35.854Z,15.20
2023-06-12T19:08:02.566Z,13.70
2023-06-12T19:10:29.375Z,14.60
2023-06-12T19:12:56.145Z,13.27
2023-06-12T19:15:23.019Z,13.77
2023-06-12T19:17:50.004Z,12.75
2023-06-12T19:20:16.835Z,12.18
2023-06-12T19:22:43.638Z,13.65
2023-06-12T19:25:10.608Z,15.15
2023-06-12T19:27:37.473Z,12.32
2023-06-12T19:30:04.778Z,13.90
2023-06-12T19:32:31.620Z,18.70
2023-06-12T19:34:58.339Z,14.25
2023-06-12T19:37:26.224Z,12.02
2023-06-12T19:39:52.994Z,14.65
2023-06-12T19:42:19.729Z,12.07
2023-06-12T19:44:46.690Z,10.52
2023-06-12T19:47:13.455Z,11.25
2023-06-12T19:49:40.128Z,13.20
2023-06-12T19:52:07.228Z,14.43
2023-06-12T19:54:34.064Z,11.80
2023-06-12T19:57:04.224Z,13.10
2023-06-12T19:59:36.170Z,14.02
2023-06-12T20:02:06.967Z,11.43
2023-06-12T20:04:35.054Z,11.52
2023-06-12T20:07:09.439Z,11.73
2023-06-12T20:09:36.208Z,13.48
2023-06-12T20:12:02.981Z,13.63
2023-06-12T20:14:29.784Z,15.40
2023-06-12T20:16:56.597Z,17.35
2023-06-12T20:19:25.979Z,15.98
2023-06-12T20:21:58.505Z,14.48
2023-06-12T20:24:30.325Z,13.63
2023-06-12T20:26:58.193Z,15.30
2023-06-12T20:29:31.823Z,13.98
2023-06-12T20:31:59.090Z,12.05
2023-06-12T20:34:26.387Z,12.35
2023-06-12T20:36:53.162Z,10.20
2023-06-12T20:39:21.013Z,14.75
2023-06-12T20:41:47.733Z,13.57
2023-06-12T20:44:14.793Z,13.65
2023-06-12T20:46:41.528Z,13.77
2023-06-12T20:49:08.299Z,11.88
2023-06-12T20:51:37.586Z,11.98
2023-06-12T20:54:04.628Z,10.38
2023-06-12T20:56:32.465Z,11.50
2023-06-12T20:58:59.225Z,11.75
2023-06-12T21:01:26.185Z,13.35
2023-06-12T21:03:53.843Z,13.13
2023-06-12T21:06:20.991Z,13.18
2023-06-12T21:09:00.645Z,13.95
2023-06-12T21:11:35.429Z,14.52
2023-06-12T21:14:22.062Z,11.65
2023-06-12T21:16:48.903Z,11.65
2023-06-12T21:19:15.690Z,13.52
2023-06-12T21:21:42.596Z,13.30
2023-06-12T21:24:09.573Z,14.85
2023-06-12T21:26:37.013Z,16.50
2023-06-12T21:29:03.730Z,14.15
2023-06-12T21:31:31.411Z,14.75
2023-06-12T21:34:01.302Z,14.00
2023-06-12T21:36:31.266Z,16.70
2023-06-12T21:38:58.407Z,14.82
2023-06-12T21:41:26.332Z,12.27
2023-06-12T21:43:53.263Z,12.15
2023-06-12T21:46:20.012Z,13.30
2023-06-12T21:48:47.006Z,11.90
2023-06-12T21:51:13.733Z,9.65
2023-06-12T21:53:40.540Z,12.48
2023-06-12T21:56:07.299Z,11.00
2023-06-12T21:58:34.029Z,13.20
2023-06-12T22:01:01.481Z,12.65
2023-06-12T22:03:29.205Z,11.10
2023-06-12T22:05:57.642Z,9.45
2023-06-12T22:08:25.106Z,10.35
2023-06-12T22:10:51.860Z,10.40
2023-06-12T22:13:18.742Z,9.07
2023-06-12T22:15:45.749Z,9.93
2023-06-12T22:18:13.289Z,8.98
2023-06-12T22:20:42.820Z,8.05
2023-06-12T22:23:12.853Z,6.97
2023-06-12T22:25:40.860Z,8.13
2023-06-12T22:28:09.273Z,6.65
2023-06-12T22:30:47.426Z,8.10
2023-06-12T22:33:18.872Z,9.75
2023-06-12T22:35:45.606Z,9.10
2023-06-12T22:38:12.459Z,8.10
2023-06-12T22:40:39.605Z,8.25
2023-06-12T22:43:14.329Z,8.07
2023-06-12T22:45:41.364Z,6.93
2023-06-12T22:48:09.712Z,6.50
2023-06-12T22:50:37.613Z,6.78
2023-06-12T22:53:06.485Z,5.97
2023-06-12T22:55:34.109Z,7.60
2023-06-12T22:58:06.318Z,8.93
2023-06-12T23:00:33.230Z,5.93
2023-06-12T23:03:09.947Z,6.68
2023-06-12T23:05:39.220Z,8.02
2023-06-12T23:08:07.091Z,6.22
2023-06-12T23:10:33.928Z,5.72
2023-06-12T23:13:00.624Z,6.97
2023-06-12T23:15:27.691Z,6.45
2023-06-12T23:17:54.645Z,6.30
2023-06-12T23:20:24.412Z,6.15
2023-06-12T23:22:54.530Z,6.18
2023-06-12T23:25:22.691Z,7.47
2023-06-12T23:27:57.967Z,4.95
2023-06-12T23:30:26.483Z,4.82
2023-06-12T23:32:56.233Z,5.40
2023-06-12T23:35:23.901Z,5.57
2023-06-12T23:37:51.201Z,5.47
2023-06-12T23:40:23.706Z,4.82
2023-06-12T23:42:53.570Z,6.05
2023-06-12T23:45:21.072Z,5.43
2023-06-12T23:47:47.863Z,5.38
2023-06-12T23:50:14.891Z,5.25
2023-06-12T23:52:42.231Z,7.28
2023-06-12T23:55:09.846Z,6.13
2023-06-12T23:57:37.796Z,5.72
